aviador You're here:

KCVW Decoded Metar

in
Report Time2017-08-23 01:55:00
UTC Time2017-08-23 02:13:11
Flight Rules vfr VFR
WindCalm
Visibility9999 m
Phenomena:N/A
Clouds:N/A
Expected CloudBase > 800 ft AGL from Temp-Dew spread
CeilingNone
Temp26°C
Dew Point24°C (89% RH)
QNH1015 hPa
Raw Report
KCVW 230155Z AUTO 00000KT 10SM CLR 26/24 A2997 RMK A01=

Extra information for KCVW:More info

Social comments